createdAt,value
2023-03-31T00:02:15.124Z,5.84
2023-03-31T00:04:46.585Z,5.80
2023-03-31T00:07:14.842Z,5.81
2023-03-31T00:09:46.025Z,5.81
2023-03-31T00:12:16.788Z,5.80
2023-03-31T00:14:44.055Z,5.77
2023-03-31T00:17:11.526Z,5.71
2023-03-31T00:19:40.181Z,5.63
2023-03-31T00:22:07.060Z,5.56
2023-03-31T00:24:34.514Z,5.48
2023-03-31T00:27:03.188Z,5.40
2023-03-31T00:29:30.081Z,5.33
2023-03-31T00:31:56.832Z,5.26
2023-03-31T00:34:23.383Z,5.21
2023-03-31T00:36:49.876Z,5.18
2023-03-31T00:39:18.791Z,5.10
2023-03-31T00:41:45.733Z,5.07
2023-03-31T00:44:24.523Z,5.04
2023-03-31T00:46:52.532Z,5.00
2023-03-31T00:49:40.407Z,4.92
2023-03-31T00:52:09.196Z,4.85
2023-03-31T00:54:37.026Z,4.80
2023-03-31T00:57:06.856Z,4.75
2023-03-31T00:59:38.984Z,4.70
2023-03-31T01:02:05.750Z,4.65
2023-03-31T01:04:38.248Z,4.64
2023-03-31T01:07:16.993Z,4.64
2023-03-31T01:09:48.868Z,4.59
2023-03-31T01:12:17.812Z,4.54
2023-03-31T01:14:44.496Z,4.50
2023-03-31T01:17:11.180Z,4.47
2023-03-31T01:20:01.938Z,4.45
2023-03-31T01:22:59.563Z,4.41
2023-03-31T01:25:26.267Z,4.42
2023-03-31T01:28:23.534Z,4.38
2023-03-31T01:31:27.560Z,4.35
2023-03-31T01:34:20.601Z,4.33
2023-03-31T01:37:23.173Z,4.34
2023-03-31T01:40:10.858Z,4.40
2023-03-31T01:42:43.135Z,4.44
2023-03-31T01:45:34.473Z,4.48
2023-03-31T01:48:08.126Z,4.46
2023-03-31T01:50:53.459Z,4.46
2023-03-31T01:53:34.148Z,4.44
2023-03-31T01:56:23.790Z,4.50
2023-03-31T01:59:02.454Z,4.57
2023-03-31T02:01:41.277Z,4.63
2023-03-31T02:04:14.674Z,4.68
2023-03-31T02:06:46.792Z,4.73
2023-03-31T02:09:19.391Z,4.79
2023-03-31T02:11:48.229Z,4.85
2023-03-31T02:14:21.855Z,4.87
2023-03-31T02:16:52.479Z,4.91
2023-03-31T02:19:23.426Z,4.92
2023-03-31T02:21:51.026Z,4.83
2023-03-31T02:24:20.270Z,5.00
2023-03-31T02:27:20.962Z,5.04
2023-03-31T02:29:48.428Z,4.91
2023-03-31T02:32:20.552Z,4.93
2023-03-31T02:34:47.188Z,4.91
2023-03-31T02:37:14.381Z,4.87
2023-03-31T02:39:44.751Z,4.80
2023-03-31T02:42:11.764Z,4.72
2023-03-31T02:44:39.504Z,4.64
2023-03-31T02:47:09.142Z,4.58
2023-03-31T02:49:39.113Z,4.57
2023-03-31T02:52:15.308Z,4.60
2023-03-31T02:55:02.990Z,4.68
2023-03-31T02:57:44.892Z,4.96
2023-03-31T03:00:36.330Z,5.01
2023-03-31T03:03:18.084Z,5.08
2023-03-31T03:05:59.110Z,5.11
2023-03-31T03:08:40.349Z,5.15
2023-03-31T03:11:26.047Z,5.19
2023-03-31T03:14:22.167Z,5.28
2023-03-31T03:16:55.085Z,5.39
2023-03-31T03:19:23.695Z,5.50
2023-03-31T03:21:50.704Z,5.55
2023-03-31T03:24:18.054Z,5.56
2023-03-31T03:26:45.814Z,5.54
2023-03-31T03:29:15.914Z,5.53
2023-03-31T03:31:42.794Z,5.53
2023-03-31T03:34:09.747Z,5.52
2023-03-31T03:36:40.288Z,5.52
2023-03-31T03:39:07.811Z,5.50
2023-03-31T03:41:34.730Z,5.53
2023-03-31T03:44:01.286Z,5.53
2023-03-31T03:46:27.879Z,5.54
2023-03-31T03:48:54.626Z,5.66
2023-03-31T03:51:21.420Z,5.66
2023-03-31T03:53:47.935Z,5.76
2023-03-31T03:56:14.450Z,5.85
2023-03-31T03:58:41.141Z,5.88
2023-03-31T04:01:07.677Z,5.90
2023-03-31T04:03:34.182Z,5.92
2023-03-31T04:06:00.772Z,5.94
2023-03-31T04:08:27.289Z,5.95
2023-03-31T04:10:53.851Z,5.95
2023-03-31T04:13:20.645Z,6.22
2023-03-31T04:15:47.507Z,6.54
2023-03-31T04:18:23.378Z,6.88
2023-03-31T04:20:54.852Z,7.00
2023-03-31T04:23:23.482Z,7.06
2023-03-31T04:25:52.780Z,7.09
2023-03-31T04:28:20.042Z,7.20
2023-03-31T04:30:46.568Z,7.28
2023-03-31T04:33:15.441Z,7.25
2023-03-31T04:35:52.633Z,7.23
2023-03-31T04:38:22.268Z,7.21
2023-03-31T04:40:51.234Z,7.24
2023-03-31T04:43:19.627Z,7.27
2023-03-31T04:45:46.295Z,7.30
2023-03-31T04:48:13.123Z,7.33
2023-03-31T04:50:40.028Z,7.35
2023-03-31T04:53:06.880Z,7.38
2023-03-31T04:55:33.650Z,7.39
2023-03-31T04:58:00.242Z,7.42
2023-03-31T05:00:26.894Z,7.45
2023-03-31T05:02:53.550Z,7.60
2023-03-31T05:05:20.206Z,7.70
2023-03-31T05:07:46.739Z,7.78
2023-03-31T05:10:13.246Z,7.86
2023-03-31T05:12:40.109Z,7.90
2023-03-31T05:15:07.515Z,7.92
2023-03-31T05:17:35.772Z,7.92
2023-03-31T05:20:06.811Z,7.95
2023-03-31T05:22:37.879Z,8.01
2023-03-31T05:25:06.285Z,8.07
2023-03-31T05:27:33.123Z,8.14
2023-03-31T05:29:59.948Z,8.20
2023-03-31T05:32:27.358Z,8.22
2023-03-31T05:34:57.095Z,8.22
2023-03-31T05:37:25.085Z,8.28
2023-03-31T05:39:51.950Z,8.32
2023-03-31T05:42:19.734Z,8.31
2023-03-31T05:44:46.310Z,8.30
2023-03-31T05:47:13.343Z,8.27
2023-03-31T05:49:39.881Z,8.28
2023-03-31T05:52:07.826Z,8.29
2023-03-31T05:54:34.359Z,8.27
2023-03-31T05:57:00.966Z,8.27
2023-03-31T05:59:27.703Z,8.26
2023-03-31T06:01:54.464Z,8.25
2023-03-31T06:04:21.180Z,8.16
2023-03-31T06:06:50.282Z,8.13
2023-03-31T06:09:17.887Z,8.06
2023-03-31T06:11:44.629Z,8.00
2023-03-31T06:14:11.684Z,7.91
2023-03-31T06:16:38.636Z,7.87
2023-03-31T06:19:05.652Z,7.86
2023-03-31T06:21:33.056Z,7.83
2023-03-31T06:24:00.610Z,7.83
2023-03-31T06:26:27.925Z,7.85
2023-03-31T06:28:54.428Z,7.86
2023-03-31T06:31:23.695Z,7.93
2023-03-31T06:33:51.109Z,7.99
2023-03-31T06:36:19.809Z,8.10
2023-03-31T06:38:46.904Z,8.16
2023-03-31T06:41:15.246Z,8.29
2023-03-31T06:43:42.200Z,8.37
2023-03-31T06:46:09.323Z,8.49
2023-03-31T06:48:36.971Z,8.58
2023-03-31T06:51:06.250Z,8.59
2023-03-31T06:53:33.654Z,8.74
2023-03-31T06:56:00.666Z,8.75
2023-03-31T06:58:29.802Z,8.78
2023-03-31T07:00:57.908Z,8.78
2023-03-31T07:03:25.375Z,8.85
2023-03-31T07:05:53.295Z,8.98
2023-03-31T07:08:21.510Z,9.13
2023-03-31T07:10:49.261Z,9.26
2023-03-31T07:13:17.630Z,9.41
2023-03-31T07:15:46.900Z,9.57
2023-03-31T07:18:15.468Z,9.76
2023-03-31T07:20:42.561Z,9.87
2023-03-31T07:23:09.501Z,9.99
2023-03-31T07:25:36.461Z,9.86
2023-03-31T07:28:04.555Z,10.01
2023-03-31T07:30:31.227Z,10.22
2023-03-31T07:32:58.504Z,10.61
2023-03-31T07:35:25.497Z,11.29
2023-03-31T07:37:52.191Z,11.57
2023-03-31T07:40:27.088Z,11.93
2023-03-31T07:42:54.020Z,12.07
2023-03-31T07:45:22.729Z,11.56
2023-03-31T07:47:50.195Z,11.40
2023-03-31T07:50:17.939Z,11.20
2023-03-31T07:52:46.889Z,11.03
2023-03-31T07:55:13.799Z,10.71
2023-03-31T07:57:41.470Z,10.49
2023-03-31T08:00:10.792Z,10.26
2023-03-31T08:02:37.406Z,10.22
2023-03-31T08:05:05.791Z,10.16
2023-03-31T08:07:36.786Z,10.10
2023-03-31T08:10:06.342Z,10.09
2023-03-31T08:12:32.928Z,10.08
2023-03-31T08:14:59.414Z,10.04
2023-03-31T08:17:26.036Z,9.95
2023-03-31T08:19:52.556Z,9.89
2023-03-31T08:22:19.241Z,9.92
2023-03-31T08:24:47.086Z,9.88
2023-03-31T08:27:13.575Z,9.79
2023-03-31T08:29:40.241Z,9.74
2023-03-31T08:32:07.290Z,9.80
2023-03-31T08:34:34.131Z,9.77
2023-03-31T08:37:00.718Z,9.82
2023-03-31T08:39:27.355Z,9.84
2023-03-31T08:42:00.138Z,9.83
2023-03-31T08:44:38.003Z,9.88
2023-03-31T08:47:07.156Z,9.85
2023-03-31T08:49:43.897Z,9.89
2023-03-31T08:52:15.885Z,9.96
2023-03-31T08:54:47.100Z,9.97
2023-03-31T08:57:22.190Z,10.01
2023-03-31T08:59:49.504Z,10.09
2023-03-31T09:02:33.156Z,10.32
2023-03-31T09:05:08.848Z,10.44
2023-03-31T09:08:13.499Z,10.62
2023-03-31T09:10:39.987Z,10.86
2023-03-31T09:13:38.532Z,11.29
2023-03-31T09:16:38.375Z,11.71
2023-03-31T09:19:15.759Z,11.33
2023-03-31T09:21:47.500Z,11.43
2023-03-31T09:24:17.998Z,11.57
2023-03-31T09:26:50.659Z,11.41
2023-03-31T09:29:24.403Z,11.29
2023-03-31T09:31:51.049Z,11.21
2023-03-31T09:34:28.451Z,11.23
2023-03-31T09:36:55.143Z,11.52
2023-03-31T09:39:21.870Z,11.83
2023-03-31T09:41:51.008Z,11.83
2023-03-31T09:44:45.032Z,11.75
2023-03-31T09:47:29.194Z,11.40
2023-03-31T09:49:56.114Z,11.16
2023-03-31T09:52:35.326Z,11.00
2023-03-31T09:55:05.599Z,11.08
2023-03-31T09:57:35.197Z,11.44
2023-03-31T10:00:13.903Z,11.76
2023-03-31T10:02:58.015Z,12.15
2023-03-31T10:05:41.309Z,12.42
2023-03-31T10:08:20.117Z,12.65
2023-03-31T10:10:52.883Z,12.80
2023-03-31T10:13:23.575Z,13.48
2023-03-31T10:15:55.397Z,17.61
2023-03-31T10:18:33.313Z,17.96
2023-03-31T10:21:02.142Z,17.94
2023-03-31T10:23:32.275Z,18.19
2023-03-31T10:26:00.558Z,21.23
2023-03-31T10:28:30.946Z,25.45
2023-03-31T10:31:03.491Z,27.80
2023-03-31T10:33:36.592Z,25.58
2023-03-31T10:36:10.046Z,22.76
2023-03-31T10:38:42.713Z,22.60
2023-03-31T10:41:09.950Z,22.03
2023-03-31T10:43:48.323Z,20.75
2023-03-31T10:46:14.860Z,20.80
2023-03-31T10:48:44.378Z,19.23
2023-03-31T10:51:19.285Z,17.99
2023-03-31T10:53:51.521Z,17.37
2023-03-31T10:56:39.440Z,17.02
2023-03-31T10:59:06.640Z,16.27
2023-03-31T11:01:57.712Z,15.59
2023-03-31T11:04:43.375Z,15.38
2023-03-31T11:07:29.512Z,15.05
2023-03-31T11:10:11.283Z,14.62
2023-03-31T11:12:45.081Z,14.45
2023-03-31T11:15:29.726Z,15.70
2023-03-31T11:18:18.758Z,18.76
2023-03-31T11:20:54.151Z,19.88
2023-03-31T11:23:36.921Z,19.07
2023-03-31T11:26:18.874Z,18.43
2023-03-31T11:29:16.610Z,17.74
2023-03-31T11:32:26.548Z,16.86
2023-03-31T11:34:55.927Z,16.18
2023-03-31T11:37:22.986Z,15.89
2023-03-31T11:40:00.923Z,15.68
2023-03-31T11:42:46.558Z,15.36
2023-03-31T11:45:18.637Z,15.07
2023-03-31T11:47:49.545Z,14.92
2023-03-31T11:50:23.714Z,14.87
2023-03-31T11:53:16.947Z,14.61
2023-03-31T11:55:48.133Z,14.64
2023-03-31T11:58:28.352Z,14.40
2023-03-31T12:01:14.505Z,13.96
2023-03-31T12:04:09.716Z,13.80
2023-03-31T12:06:41.779Z,13.67
2023-03-31T12:09:27.534Z,13.61
2023-03-31T12:12:19.256Z,13.47
2023-03-31T12:14:53.383Z,13.43
2023-03-31T12:17:29.636Z,13.34
2023-03-31T12:19:57.857Z,13.12
2023-03-31T12:22:24.298Z,12.92
2023-03-31T12:24:52.493Z,12.62
2023-03-31T12:27:37.871Z,11.27
2023-03-31T12:30:10.832Z,10.59
2023-03-31T12:40:55.377Z,9.80
2023-03-31T12:43:25.091Z,9.82
2023-03-31T12:46:21.538Z,9.82
2023-03-31T12:49:24.904Z,9.89
2023-03-31T12:52:19.762Z,9.95
2023-03-31T12:58:32.875Z,10.24
2023-03-31T13:01:16.516Z,10.26
2023-03-31T13:07:02.294Z,10.37
2023-03-31T13:09:31.600Z,10.40
2023-03-31T13:11:58.229Z,10.47
2023-03-31T13:14:30.392Z,10.44
2023-03-31T13:17:30.720Z,10.40
2023-03-31T13:20:17.052Z,10.51
2023-03-31T13:22:48.442Z,10.45
2023-03-31T13:25:30.418Z,10.38
2023-03-31T13:27:59.024Z,10.46
2023-03-31T13:30:37.130Z,10.44
2023-03-31T13:33:22.172Z,10.53
2023-03-31T13:35:57.485Z,10.64
2023-03-31T13:38:51.657Z,10.62
2023-03-31T13:41:30.965Z,10.69
2023-03-31T13:44:14.967Z,10.74
2023-03-31T13:46:56.703Z,10.88
2023-03-31T13:49:51.723Z,10.89
2023-03-31T13:52:33.543Z,10.90
2023-03-31T13:55:21.980Z,10.89
2023-03-31T13:58:24.951Z,10.93
2023-03-31T14:01:14.765Z,11.03
2023-03-31T14:03:47.350Z,11.02
2023-03-31T14:06:32.271Z,11.04
2023-03-31T14:09:05.838Z,11.06
2023-03-31T14:11:33.304Z,11.03
2023-03-31T14:14:17.853Z,11.07
2023-03-31T14:17:02.564Z,11.05
2023-03-31T14:19:31.746Z,11.03
2023-03-31T14:22:35.976Z,11.03
2023-03-31T14:25:08.203Z,11.03
2023-03-31T14:27:56.494Z,11.02
2023-03-31T14:30:47.586Z,11.05
2023-03-31T14:33:34.271Z,11.15
2023-03-31T14:36:15.949Z,11.17
2023-03-31T14:38:43.390Z,11.06
2023-03-31T14:41:20.158Z,11.06
2023-03-31T14:43:51.514Z,11.03
2023-03-31T14:46:22.192Z,10.94
2023-03-31T14:48:51.265Z,11.03
2023-03-31T14:51:29.643Z,10.93
2023-03-31T14:54:00.920Z,10.90
2023-03-31T14:56:41.114Z,10.88
2023-03-31T14:59:08.662Z,10.95
2023-03-31T15:01:38.328Z,10.97
2023-03-31T15:04:12.606Z,10.95
2023-03-31T15:06:42.083Z,10.95
2023-03-31T15:09:18.961Z,10.90
2023-03-31T15:11:47.658Z,10.86
2023-03-31T15:14:14.594Z,10.85
2023-03-31T15:16:43.450Z,10.94
2023-03-31T15:19:22.834Z,10.94
2023-03-31T15:22:01.641Z,11.01
2023-03-31T15:24:29.230Z,11.04
2023-03-31T15:27:03.487Z,11.01
2023-03-31T15:29:38.374Z,11.14
2023-03-31T15:32:13.493Z,11.12
2023-03-31T15:34:43.259Z,11.13
2023-03-31T15:37:10.541Z,11.08
2023-03-31T15:39:38.436Z,10.91
2023-03-31T15:42:07.249Z,10.86
2023-03-31T15:44:37.860Z,10.86
2023-03-31T15:47:12.854Z,10.77
2023-03-31T15:49:54.308Z,10.78
2023-03-31T15:52:53.018Z,10.72
2023-03-31T15:55:39.911Z,10.64
2023-03-31T15:58:11.814Z,10.53
2023-03-31T16:00:47.422Z,10.53
2023-03-31T16:03:18.849Z,10.54
2023-03-31T16:08:44.809Z,10.13
2023-03-31T16:11:17.835Z,10.08
2023-03-31T16:13:50.278Z,10.03
2023-03-31T16:16:21.283Z,10.11
2023-03-31T16:18:51.188Z,10.07
2023-03-31T16:21:28.374Z,10.01
2023-03-31T16:23:58.821Z,9.96
2023-03-31T16:26:28.204Z,9.87
2023-03-31T16:28:57.473Z,9.87
2023-03-31T16:31:34.781Z,9.78
2023-03-31T16:34:03.837Z,9.77
2023-03-31T16:36:31.232Z,9.77
2023-03-31T16:39:01.874Z,9.74
2023-03-31T16:41:29.735Z,9.76
2023-03-31T16:43:56.329Z,9.74
2023-03-31T16:46:23.750Z,9.72
2023-03-31T16:48:51.248Z,9.73
2023-03-31T16:51:19.746Z,9.73
2023-03-31T16:53:47.104Z,9.75
2023-03-31T16:56:14.398Z,9.76
2023-03-31T16:58:42.054Z,9.76
2023-03-31T17:01:10.027Z,9.85
2023-03-31T17:03:38.429Z,9.87
2023-03-31T17:06:11.431Z,9.94
2023-03-31T17:08:39.555Z,10.01
2023-03-31T17:11:10.978Z,10.05
2023-03-31T17:13:38.482Z,10.09
2023-03-31T17:16:17.524Z,10.03
2023-03-31T17:18:53.111Z,9.98
2023-03-31T17:21:19.925Z,9.98
2023-03-31T17:23:46.919Z,10.01
2023-03-31T17:26:14.465Z,10.03
2023-03-31T17:28:41.632Z,10.08
2023-03-31T17:31:26.277Z,10.08
2023-03-31T17:33:52.852Z,10.15
2023-03-31T17:36:19.469Z,10.11
2023-03-31T17:38:46.043Z,10.13
2023-03-31T17:41:13.521Z,10.16
2023-03-31T17:43:40.506Z,10.19
2023-03-31T17:46:11.830Z,10.14
2023-03-31T17:48:39.409Z,10.15
2023-03-31T17:51:12.070Z,10.17
2023-03-31T17:53:39.708Z,10.18
2023-03-31T17:56:06.650Z,10.24
2023-03-31T17:58:33.661Z,10.28
2023-03-31T18:01:00.201Z,10.26
2023-03-31T18:03:29.860Z,10.28
2023-03-31T18:05:56.764Z,10.28
2023-03-31T18:08:23.261Z,10.23
2023-03-31T18:10:50.542Z,10.30
2023-03-31T18:13:17.482Z,10.22
2023-03-31T18:15:49.139Z,10.08
2023-03-31T18:18:15.801Z,9.88
2023-03-31T18:20:42.429Z,9.64
2023-03-31T18:23:08.989Z,9.48
2023-03-31T18:25:36.054Z,9.37
2023-03-31T18:28:03.530Z,9.30
2023-03-31T18:30:30.209Z,9.23
2023-03-31T18:32:57.328Z,9.19
2023-03-31T18:35:24.120Z,9.09
2023-03-31T18:37:50.701Z,9.03
2023-03-31T18:40:17.382Z,9.01
2023-03-31T18:42:43.914Z,9.06
2023-03-31T18:45:10.648Z,9.05
2023-03-31T18:47:37.182Z,9.07
2023-03-31T18:50:04.724Z,9.03
2023-03-31T18:52:31.690Z,9.02
2023-03-31T18:54:58.377Z,9.10
2023-03-31T18:57:25.236Z,9.09
2023-03-31T18:59:51.916Z,9.09
2023-03-31T19:02:18.549Z,9.05
2023-03-31T19:04:45.546Z,9.06
2023-03-31T19:07:12.079Z,9.04
2023-03-31T19:09:38.997Z,9.01
2023-03-31T19:12:05.925Z,8.98
2023-03-31T19:14:33.342Z,8.95
2023-03-31T19:17:00.137Z,8.97
2023-03-31T19:19:27.195Z,8.90
2023-03-31T19:21:54.429Z,8.84
2023-03-31T19:24:20.947Z,8.86
2023-03-31T19:26:47.679Z,8.84
2023-03-31T19:29:14.153Z,8.81
2023-03-31T19:31:41.449Z,8.78
2023-03-31T19:34:11.594Z,8.77
2023-03-31T19:36:38.234Z,8.72
2023-03-31T19:39:06.513Z,8.73
2023-03-31T19:41:34.450Z,8.72
2023-03-31T19:44:01.633Z,8.71
2023-03-31T19:46:28.681Z,8.66
2023-03-31T19:48:55.201Z,8.63
2023-03-31T19:51:21.717Z,8.61
2023-03-31T19:53:48.286Z,8.55
2023-03-31T19:56:17.351Z,8.46
2023-03-31T19:58:44.546Z,8.43
2023-03-31T20:01:17.737Z,8.36
2023-03-31T20:03:44.757Z,8.27
2023-03-31T20:06:13.849Z,8.21
2023-03-31T20:08:42.587Z,8.15
2023-03-31T20:13:40.009Z,7.99
2023-03-31T20:16:11.746Z,7.97
2023-03-31T20:18:38.687Z,7.97
2023-03-31T20:21:06.599Z,7.91
2023-03-31T20:23:34.118Z,7.97
2023-03-31T20:26:01.283Z,7.98
2023-03-31T20:28:29.088Z,7.95
2023-03-31T20:30:58.576Z,7.90
2023-03-31T20:33:26.201Z,7.88
2023-03-31T20:36:27.162Z,7.76
2023-03-31T20:38:54.171Z,7.72
2023-03-31T20:41:23.126Z,7.72
2023-03-31T20:43:50.625Z,7.70
2023-03-31T20:46:17.589Z,7.73
2023-03-31T20:48:47.692Z,7.76
2023-03-31T20:51:15.547Z,7.85
2023-03-31T20:53:47.060Z,7.90
2023-03-31T20:56:17.431Z,7.94
2023-03-31T20:58:44.879Z,7.97
2023-03-31T21:01:13.410Z,7.97
2023-03-31T21:03:41.248Z,7.94
2023-03-31T21:06:11.759Z,7.84
2023-03-31T21:08:39.699Z,7.73
2023-03-31T21:11:06.557Z,7.66
2023-03-31T21:13:33.627Z,7.63
2023-03-31T21:16:01.299Z,7.57
2023-03-31T21:18:29.465Z,7.49
2023-03-31T21:21:01.443Z,7.41
2023-03-31T21:23:29.756Z,7.35
2023-03-31T21:25:58.872Z,7.30
2023-03-31T21:28:28.695Z,7.22
2023-03-31T21:31:00.634Z,7.15
2023-03-31T21:33:28.793Z,7.22
2023-03-31T21:35:56.518Z,7.26
2023-03-31T21:38:23.461Z,7.38
2023-03-31T21:40:54.303Z,7.49
2023-03-31T21:43:22.047Z,7.59
2023-03-31T21:45:50.185Z,7.65
2023-03-31T21:48:16.979Z,7.74
2023-03-31T21:50:46.051Z,7.82
2023-03-31T21:53:12.872Z,7.94
2023-03-31T21:55:39.498Z,7.94
2023-03-31T21:58:06.205Z,7.98
2023-03-31T22:00:32.886Z,8.00
2023-03-31T22:03:16.162Z,8.04
2023-03-31T22:05:46.632Z,8.00
2023-03-31T22:08:13.155Z,7.99
2023-03-31T22:10:39.641Z,7.97
2023-03-31T22:13:06.357Z,7.94
2023-03-31T22:15:33.021Z,7.90
2023-03-31T22:17:59.854Z,7.86
2023-03-31T22:20:26.975Z,7.86
2023-03-31T22:22:53.468Z,7.89
2023-03-31T22:25:19.998Z,7.89
2023-03-31T22:27:46.489Z,7.89
2023-03-31T22:30:13.515Z,7.88
2023-03-31T22:32:40.069Z,7.88
2023-03-31T22:35:07.226Z,7.89
2023-03-31T22:37:33.694Z,7.85
2023-03-31T22:40:00.388Z,7.76
2023-03-31T22:42:26.920Z,7.63
2023-03-31T22:44:53.400Z,7.54
2023-03-31T22:47:20.095Z,7.43
2023-03-31T22:49:46.826Z,7.35
2023-03-31T22:52:13.371Z,7.32
2023-03-31T22:54:41.204Z,7.24
2023-03-31T22:57:08.266Z,7.13
2023-03-31T22:59:36.205Z,7.04
2023-03-31T23:02:03.470Z,6.95
2023-03-31T23:04:30.526Z,6.88
2023-03-31T23:06:57.105Z,6.80
2023-03-31T23:09:24.479Z,6.81
2023-03-31T23:11:51.440Z,6.94
2023-03-31T23:14:17.958Z,6.96
2023-03-31T23:16:44.695Z,7.03
2023-03-31T23:19:12.236Z,7.04
2023-03-31T23:21:38.815Z,7.16
2023-03-31T23:24:05.633Z,7.22
2023-03-31T23:26:33.984Z,7.34
2023-03-31T23:29:01.295Z,7.40
2023-03-31T23:31:30.240Z,7.45
2023-03-31T23:33:58.449Z,7.47
2023-03-31T23:36:25.940Z,7.55
2023-03-31T23:38:55.135Z,7.54
2023-03-31T23:41:26.323Z,7.40
2023-03-31T23:43:53.753Z,7.35
2023-03-31T23:46:21.558Z,7.28
2023-03-31T23:48:48.113Z,7.19
2023-03-31T23:51:14.638Z,7.24
2023-03-31T23:53:41.209Z,7.29
2023-03-31T23:56:10.516Z,7.31
2023-03-31T23:58:37.540Z,7.33
